sensor_id;sensor_type;location;lat;lon;timestamp;temperature;humidity
39675;DHT22;27790;50.840;4.386;2022-08-27T00:01:56;19.50;84.70
39675;DHT22;27790;50.840;4.386;2022-08-27T00:04:21;19.50;84.80
39675;DHT22;27790;50.840;4.386;2022-08-27T00:06:47;19.50;84.00
39675;DHT22;27790;50.840;4.386;2022-08-27T00:09:12;19.50;84.00
39675;DHT22;27790;50.840;4.386;2022-08-27T00:11:38;19.50;84.10
39675;DHT22;27790;50.840;4.386;2022-08-27T00:14:04;19.50;83.80
39675;DHT22;27790;50.840;4.386;2022-08-27T00:16:29;19.50;83.70
39675;DHT22;27790;50.840;4.386;2022-08-27T00:18:55;19.50;83.60
39675;DHT22;27790;50.840;4.386;2022-08-27T00:21:22;19.60;83.50
39675;DHT22;27790;50.840;4.386;2022-08-27T00:23:47;19.60;83.50
39675;DHT22;27790;50.840;4.386;2022-08-27T00:26:14;19.50;83.50
39675;DHT22;27790;50.840;4.386;2022-08-27T00:28:40;19.50;83.40
39675;DHT22;27790;50.840;4.386;2022-08-27T00:31:06;19.50;83.40
39675;DHT22;27790;50.840;4.386;2022-08-27T00:33:32;19.60;83.10
39675;DHT22;27790;50.840;4.386;2022-08-27T00:35:57;19.60;83.00
39675;DHT22;27790;50.840;4.386;2022-08-27T00:38:23;19.70;83.10
39675;DHT22;27790;50.840;4.386;2022-08-27T00:40:49;19.70;82.60
39675;DHT22;27790;50.840;4.386;2022-08-27T00:46:23;19.70;82.50
39675;DHT22;27790;50.840;4.386;2022-08-27T00:48:51;19.60;82.60
39675;DHT22;27790;50.840;4.386;2022-08-27T00:51:18;19.60;82.60
39675;DHT22;27790;50.840;4.386;2022-08-27T00:53:46;19.60;82.70
39675;DHT22;27790;50.840;4.386;2022-08-27T00:56:18;19.50;82.70
39675;DHT22;27790;50.840;4.386;2022-08-27T00:58:47;19.60;83.10
39675;DHT22;27790;50.840;4.386;2022-08-27T01:01:17;19.50;83.00
39675;DHT22;27790;50.840;4.386;2022-08-27T01:03:47;19.50;83.20
39675;DHT22;27790;50.840;4.386;2022-08-27T01:06:15;19.50;83.10
39675;DHT22;27790;50.840;4.386;2022-08-27T01:08:50;19.50;82.90
39675;DHT22;27790;50.840;4.386;2022-08-27T01:11:16;19.50;83.00
39675;DHT22;27790;50.840;4.386;2022-08-27T01:13:43;19.50;83.20
39675;DHT22;27790;50.840;4.386;2022-08-27T01:16:10;19.50;83.00
39675;DHT22;27790;50.840;4.386;2022-08-27T01:18:37;19.30;83.40
39675;DHT22;27790;50.840;4.386;2022-08-27T01:23:42;19.20;84.00
39675;DHT22;27790;50.840;4.386;2022-08-27T01:26:09;19.10;84.00
39675;DHT22;27790;50.840;4.386;2022-08-27T01:28:37;19.10;84.40
39675;DHT22;27790;50.840;4.386;2022-08-27T01:31:05;19.10;84.50
39675;DHT22;27790;50.840;4.386;2022-08-27T01:33:32;19.00;84.60
39675;DHT22;27790;50.840;4.386;2022-08-27T01:35:57;19.00;84.70
39675;DHT22;27790;50.840;4.386;2022-08-27T01:38:23;19.00;84.90
39675;DHT22;27790;50.840;4.386;2022-08-27T01:40:49;18.90;85.00
39675;DHT22;27790;50.840;4.386;2022-08-27T01:43:15;18.90;85.20
39675;DHT22;27790;50.840;4.386;2022-08-27T01:45:45;18.90;85.90
39675;DHT22;27790;50.840;4.386;2022-08-27T01:48:13;18.90;85.30
39675;DHT22;27790;50.840;4.386;2022-08-27T01:50:40;18.80;85.50
39675;DHT22;27790;50.840;4.386;2022-08-27T01:53:14;18.70;85.70
39675;DHT22;27790;50.840;4.386;2022-08-27T01:55:41;18.70;86.00
39675;DHT22;27790;50.840;4.386;2022-08-27T01:58:08;18.60;86.20
39675;DHT22;27790;50.840;4.386;2022-08-27T02:00:37;18.60;86.30
39675;DHT22;27790;50.840;4.386;2022-08-27T02:03:04;18.60;86.40
39675;DHT22;27790;50.840;4.386;2022-08-27T02:05:30;18.60;86.30
39675;DHT22;27790;50.840;4.386;2022-08-27T02:07:56;18.70;86.20
39675;DHT22;27790;50.840;4.386;2022-08-27T02:10:29;18.60;86.20
39675;DHT22;27790;50.840;4.386;2022-08-27T02:12:55;18.60;86.40
39675;DHT22;27790;50.840;4.386;2022-08-27T02:15:21;18.60;86.40
39675;DHT22;27790;50.840;4.386;2022-08-27T02:17:48;18.50;86.60
39675;DHT22;27790;50.840;4.386;2022-08-27T02:20:15;18.50;86.90
39675;DHT22;27790;50.840;4.386;2022-08-27T02:22:41;18.40;86.90
39675;DHT22;27790;50.840;4.386;2022-08-27T02:25:09;18.40;87.00
39675;DHT22;27790;50.840;4.386;2022-08-27T02:27:41;18.40;87.10
39675;DHT22;27790;50.840;4.386;2022-08-27T02:30:11;18.50;87.10
39675;DHT22;27790;50.840;4.386;2022-08-27T02:32:37;18.40;87.00
39675;DHT22;27790;50.840;4.386;2022-08-27T02:35:03;18.40;87.00
39675;DHT22;27790;50.840;4.386;2022-08-27T02:37:30;18.50;87.10
39675;DHT22;27790;50.840;4.386;2022-08-27T02:39:55;18.50;87.10
39675;DHT22;27790;50.840;4.386;2022-08-27T02:42:21;18.50;87.10
39675;DHT22;27790;50.840;4.386;2022-08-27T02:44:46;18.40;86.90
39675;DHT22;27790;50.840;4.386;2022-08-27T02:47:13;18.40;87.20
39675;DHT22;27790;50.840;4.386;2022-08-27T02:49:39;18.40;87.40
39675;DHT22;27790;50.840;4.386;2022-08-27T02:52:05;18.40;87.30
39675;DHT22;27790;50.840;4.386;2022-08-27T02:54:31;18.40;87.30
39675;DHT22;27790;50.840;4.386;2022-08-27T02:56:57;18.40;87.30
39675;DHT22;27790;50.840;4.386;2022-08-27T02:59:23;18.30;87.40
39675;DHT22;27790;50.840;4.386;2022-08-27T03:01:48;18.30;87.60
39675;DHT22;27790;50.840;4.386;2022-08-27T03:04:15;18.30;87.50
39675;DHT22;27790;50.840;4.386;2022-08-27T03:06:41;18.30;87.80
39675;DHT22;27790;50.840;4.386;2022-08-27T03:09:06;18.30;87.90
39675;DHT22;27790;50.840;4.386;2022-08-27T03:11:34;18.30;87.90
39675;DHT22;27790;50.840;4.386;2022-08-27T03:14:00;18.20;88.00
39675;DHT22;27790;50.840;4.386;2022-08-27T03:16:26;18.20;88.10
39675;DHT22;27790;50.840;4.386;2022-08-27T03:18:51;18.20;88.10
39675;DHT22;27790;50.840;4.386;2022-08-27T03:21:20;18.20;88.10
39675;DHT22;27790;50.840;4.386;2022-08-27T03:23:46;18.10;88.10
39675;DHT22;27790;50.840;4.386;2022-08-27T03:26:13;18.10;88.30
39675;DHT22;27790;50.840;4.386;2022-08-27T03:28:39;18.00;88.40
39675;DHT22;27790;50.840;4.386;2022-08-27T03:31:07;18.10;88.50
39675;DHT22;27790;50.840;4.386;2022-08-27T03:33:36;17.90;88.70
39675;DHT22;27790;50.840;4.386;2022-08-27T03:36:03;18.00;88.90
39675;DHT22;27790;50.840;4.386;2022-08-27T03:38:29;18.00;88.90
39675;DHT22;27790;50.840;4.386;2022-08-27T03:40:54;18.00;88.80
39675;DHT22;27790;50.840;4.386;2022-08-27T03:43:21;18.00;88.60
39675;DHT22;27790;50.840;4.386;2022-08-27T03:45:48;18.10;88.50
39675;DHT22;27790;50.840;4.386;2022-08-27T03:48:14;18.10;88.50
39675;DHT22;27790;50.840;4.386;2022-08-27T03:50:42;18.10;88.40
39675;DHT22;27790;50.840;4.386;2022-08-27T03:53:09;18.20;88.60
39675;DHT22;27790;50.840;4.386;2022-08-27T03:55:34;18.30;88.40
39675;DHT22;27790;50.840;4.386;2022-08-27T03:58:00;18.40;87.80
39675;DHT22;27790;50.840;4.386;2022-08-27T04:00:26;18.50;87.30
39675;DHT22;27790;50.840;4.386;2022-08-27T04:02:53;18.50;87.10
39675;DHT22;27790;50.840;4.386;2022-08-27T04:05:20;18.50;87.10
39675;DHT22;27790;50.840;4.386;2022-08-27T04:07:46;18.40;87.10
39675;DHT22;27790;50.840;4.386;2022-08-27T04:10:12;18.40;87.50
39675;DHT22;27790;50.840;4.386;2022-08-27T04:12:38;18.30;87.70
39675;DHT22;27790;50.840;4.386;2022-08-27T04:15:04;18.30;88.00
39675;DHT22;27790;50.840;4.386;2022-08-27T04:17:31;18.20;88.30
39675;DHT22;27790;50.840;4.386;2022-08-27T04:19:57;18.10;88.40
39675;DHT22;27790;50.840;4.386;2022-08-27T04:22:25;18.10;88.50
39675;DHT22;27790;50.840;4.386;2022-08-27T04:24:51;18.20;88.60
39675;DHT22;27790;50.840;4.386;2022-08-27T04:27:17;18.10;88.70
39675;DHT22;27790;50.840;4.386;2022-08-27T04:29:42;18.10;88.90
39675;DHT22;27790;50.840;4.386;2022-08-27T04:32:08;18.10;88.90
39675;DHT22;27790;50.840;4.386;2022-08-27T04:34:34;18.10;89.00
39675;DHT22;27790;50.840;4.386;2022-08-27T04:37:00;18.10;89.10
39675;DHT22;27790;50.840;4.386;2022-08-27T04:39:27;18.00;89.10
39675;DHT22;27790;50.840;4.386;2022-08-27T04:41:55;18.00;89.20
39675;DHT22;27790;50.840;4.386;2022-08-27T04:44:21;18.00;89.40
39675;DHT22;27790;50.840;4.386;2022-08-27T04:46:47;18.00;89.50
39675;DHT22;27790;50.840;4.386;2022-08-27T04:49:15;18.00;89.50
39675;DHT22;27790;50.840;4.386;2022-08-27T04:51:41;18.00;89.60
39675;DHT22;27790;50.840;4.386;2022-08-27T04:54:08;18.00;89.70
39675;DHT22;27790;50.840;4.386;2022-08-27T04:56:34;18.00;89.60
39675;DHT22;27790;50.840;4.386;2022-08-27T04:59:02;18.00;89.50
39675;DHT22;27790;50.840;4.386;2022-08-27T05:01:29;18.10;89.40
39675;DHT22;27790;50.840;4.386;2022-08-27T05:03:55;18.20;89.20
39675;DHT22;27790;50.840;4.386;2022-08-27T05:06:23;18.30;88.80
39675;DHT22;27790;50.840;4.386;2022-08-27T05:08:50;18.40;88.40
39675;DHT22;27790;50.840;4.386;2022-08-27T05:11:17;18.50;88.20
39675;DHT22;27790;50.840;4.386;2022-08-27T05:13:44;18.60;87.80
39675;DHT22;27790;50.840;4.386;2022-08-27T05:16:12;18.60;87.80
39675;DHT22;27790;50.840;4.386;2022-08-27T05:18:40;18.70;87.50
39675;DHT22;27790;50.840;4.386;2022-08-27T05:21:06;18.80;87.20
39675;DHT22;27790;50.840;4.386;2022-08-27T05:23:33;18.80;87.00
39675;DHT22;27790;50.840;4.386;2022-08-27T05:25:59;18.90;87.00
39675;DHT22;27790;50.840;4.386;2022-08-27T05:28:26;18.90;86.90
39675;DHT22;27790;50.840;4.386;2022-08-27T05:30:54;18.90;86.70
39675;DHT22;27790;50.840;4.386;2022-08-27T05:33:23;19.00;86.70
39675;DHT22;27790;50.840;4.386;2022-08-27T05:35:51;19.00;86.50
39675;DHT22;27790;50.840;4.386;2022-08-27T05:38:18;19.00;86.30
39675;DHT22;27790;50.840;4.386;2022-08-27T05:40:44;19.10;86.20
39675;DHT22;27790;50.840;4.386;2022-08-27T05:43:10;19.10;85.80
39675;DHT22;27790;50.840;4.386;2022-08-27T05:45:47;19.20;85.80
39675;DHT22;27790;50.840;4.386;2022-08-27T05:48:16;19.30;85.50
39675;DHT22;27790;50.840;4.386;2022-08-27T05:50:43;19.20;85.30
39675;DHT22;27790;50.840;4.386;2022-08-27T05:53:10;19.20;85.30
39675;DHT22;27790;50.840;4.386;2022-08-27T05:55:41;19.20;85.30
39675;DHT22;27790;50.840;4.386;2022-08-27T05:58:08;19.30;85.30
39675;DHT22;27790;50.840;4.386;2022-08-27T06:00:54;19.30;85.10
39675;DHT22;27790;50.840;4.386;2022-08-27T06:03:35;19.40;85.00
39675;DHT22;27790;50.840;4.386;2022-08-27T06:06:03;19.40;84.80
39675;DHT22;27790;50.840;4.386;2022-08-27T06:08:29;19.40;84.80
39675;DHT22;27790;50.840;4.386;2022-08-27T06:10:55;19.40;84.80
39675;DHT22;27790;50.840;4.386;2022-08-27T06:13:22;19.50;85.00
39675;DHT22;27790;50.840;4.386;2022-08-27T06:15:48;19.50;84.80
39675;DHT22;27790;50.840;4.386;2022-08-27T06:18:14;19.50;84.30
39675;DHT22;27790;50.840;4.386;2022-08-27T06:20:40;19.60;84.10
39675;DHT22;27790;50.840;4.386;2022-08-27T06:23:05;19.70;84.10
39675;DHT22;27790;50.840;4.386;2022-08-27T06:25:31;19.70;83.70
39675;DHT22;27790;50.840;4.386;2022-08-27T06:27:57;19.70;83.80
39675;DHT22;27790;50.840;4.386;2022-08-27T06:30:24;19.80;83.30
39675;DHT22;27790;50.840;4.386;2022-08-27T06:32:50;19.90;83.10
39675;DHT22;27790;50.840;4.386;2022-08-27T06:35:17;20.10;82.80
39675;DHT22;27790;50.840;4.386;2022-08-27T06:37:42;20.20;82.20
39675;DHT22;27790;50.840;4.386;2022-08-27T06:40:08;20.50;81.30
39675;DHT22;27790;50.840;4.386;2022-08-27T06:42:35;20.50;80.50
39675;DHT22;27790;50.840;4.386;2022-08-27T06:45:01;20.40;80.80
39675;DHT22;27790;50.840;4.386;2022-08-27T06:47:29;20.40;80.60
39675;DHT22;27790;50.840;4.386;2022-08-27T06:49:55;20.40;80.40
39675;DHT22;27790;50.840;4.386;2022-08-27T06:52:22;20.30;80.90
39675;DHT22;27790;50.840;4.386;2022-08-27T06:54:47;20.30;80.60
39675;DHT22;27790;50.840;4.386;2022-08-27T06:57:14;20.40;80.80
39675;DHT22;27790;50.840;4.386;2022-08-27T06:59:40;20.50;80.70
39675;DHT22;27790;50.840;4.386;2022-08-27T07:02:06;20.60;80.20
39675;DHT22;27790;50.840;4.386;2022-08-27T07:04:31;20.90;80.10
39675;DHT22;27790;50.840;4.386;2022-08-27T07:06:57;21.10;79.40
39675;DHT22;27790;50.840;4.386;2022-08-27T07:09:23;21.30;78.10
39675;DHT22;27790;50.840;4.386;2022-08-27T07:11:49;21.40;77.90
39675;DHT22;27790;50.840;4.386;2022-08-27T07:14:15;21.50;77.80
39675;DHT22;27790;50.840;4.386;2022-08-27T07:16:41;21.50;76.90
39675;DHT22;27790;50.840;4.386;2022-08-27T07:19:07;21.60;76.30
39675;DHT22;27790;50.840;4.386;2022-08-27T07:21:33;21.70;76.30
39675;DHT22;27790;50.840;4.386;2022-08-27T07:24:01;21.90;75.50
39675;DHT22;27790;50.840;4.386;2022-08-27T07:26:30;22.10;75.10
39675;DHT22;27790;50.840;4.386;2022-08-27T07:28:56;22.40;74.30
39675;DHT22;27790;50.840;4.386;2022-08-27T07:31:22;22.90;72.50
39675;DHT22;27790;50.840;4.386;2022-08-27T07:33:49;23.60;71.10
39675;DHT22;27790;50.840;4.386;2022-08-27T07:36:15;24.30;69.50
39675;DHT22;27790;50.840;4.386;2022-08-27T07:38:40;24.80;67.70
39675;DHT22;27790;50.840;4.386;2022-08-27T07:41:08;25.10;66.90
39675;DHT22;27790;50.840;4.386;2022-08-27T07:43:33;25.50;65.80
39675;DHT22;27790;50.840;4.386;2022-08-27T07:46:10;25.90;64.70
39675;DHT22;27790;50.840;4.386;2022-08-27T07:48:36;26.10;63.60
39675;DHT22;27790;50.840;4.386;2022-08-27T07:51:02;26.30;63.10
39675;DHT22;27790;50.840;4.386;2022-08-27T07:53:31;26.50;63.00
39675;DHT22;27790;50.840;4.386;2022-08-27T07:56:06;26.90;61.80
39675;DHT22;27790;50.840;4.386;2022-08-27T07:58:33;27.30;61.60
39675;DHT22;27790;50.840;4.386;2022-08-27T08:00:59;27.70;60.70
39675;DHT22;27790;50.840;4.386;2022-08-27T08:03:25;27.90;59.90
39675;DHT22;27790;50.840;4.386;2022-08-27T08:05:51;28.30;59.40
39675;DHT22;27790;50.840;4.386;2022-08-27T08:08:23;28.60;59.00
39675;DHT22;27790;50.840;4.386;2022-08-27T08:10:49;28.80;57.90
39675;DHT22;27790;50.840;4.386;2022-08-27T08:13:16;29.00;55.80
39675;DHT22;27790;50.840;4.386;2022-08-27T08:15:43;28.70;55.30
39675;DHT22;27790;50.840;4.386;2022-08-27T08:18:09;28.80;55.20
39675;DHT22;27790;50.840;4.386;2022-08-27T08:20:35;28.80;55.80
39675;DHT22;27790;50.840;4.386;2022-08-27T08:23:01;28.70;54.90
39675;DHT22;27790;50.840;4.386;2022-08-27T08:25:27;29.10;53.60
39675;DHT22;27790;50.840;4.386;2022-08-27T08:27:53;29.30;51.90
39675;DHT22;27790;50.840;4.386;2022-08-27T08:30:18;28.90;52.10
39675;DHT22;27790;50.840;4.386;2022-08-27T08:32:44;28.60;52.40
39675;DHT22;27790;50.840;4.386;2022-08-27T08:35:09;28.30;52.50
39675;DHT22;27790;50.840;4.386;2022-08-27T08:37:35;27.70;53.30
39675;DHT22;27790;50.840;4.386;2022-08-27T08:40:02;27.10;55.00
39675;DHT22;27790;50.840;4.386;2022-08-27T08:42:30;26.90;55.80
39675;DHT22;27790;50.840;4.386;2022-08-27T08:44:59;26.40;56.60
39675;DHT22;27790;50.840;4.386;2022-08-27T08:47:35;25.70;57.90
39675;DHT22;27790;50.840;4.386;2022-08-27T08:50:08;25.20;59.50
39675;DHT22;27790;50.840;4.386;2022-08-27T09:00:29;26.60;56.90
39675;DHT22;27790;50.840;4.386;2022-08-27T09:02:56;26.10;57.20
39675;DHT22;27790;50.840;4.386;2022-08-27T09:05:23;26.20;56.80
39675;DHT22;27790;50.840;4.386;2022-08-27T09:15:55;25.10;59.40
39675;DHT22;27790;50.840;4.386;2022-08-27T09:18:21;25.50;58.80
39675;DHT22;27790;50.840;4.386;2022-08-27T09:20:49;25.70;57.80
39675;DHT22;27790;50.840;4.386;2022-08-27T09:23:29;26.00;57.90
39675;DHT22;27790;50.840;4.386;2022-08-27T09:25:56;26.30;56.90
39675;DHT22;27790;50.840;4.386;2022-08-27T09:28:27;26.20;57.40
39675;DHT22;27790;50.840;4.386;2022-08-27T09:31:06;25.90;56.90
39675;DHT22;27790;50.840;4.386;2022-08-27T09:33:33;25.40;58.40
39675;DHT22;27790;50.840;4.386;2022-08-27T09:36:06;25.00;59.30
39675;DHT22;27790;50.840;4.386;2022-08-27T09:38:33;24.60;60.00
39675;DHT22;27790;50.840;4.386;2022-08-27T09:41:04;24.60;60.60
39675;DHT22;27790;50.840;4.386;2022-08-27T09:43:30;24.40;60.70
39675;DHT22;27790;50.840;4.386;2022-08-27T09:46:05;24.40;61.20
39675;DHT22;27790;50.840;4.386;2022-08-27T09:48:40;24.20;61.30
39675;DHT22;27790;50.840;4.386;2022-08-27T09:51:10;23.90;61.50
39675;DHT22;27790;50.840;4.386;2022-08-27T09:53:49;23.70;62.00
39675;DHT22;27790;50.840;4.386;2022-08-27T10:01:56;23.20;63.70
39675;DHT22;27790;50.840;4.386;2022-08-27T10:07:34;24.10;62.30
39675;DHT22;27790;50.840;4.386;2022-08-27T10:10:18;24.10;61.50
39675;DHT22;27790;50.840;4.386;2022-08-27T10:13:04;24.10;60.60
39675;DHT22;27790;50.840;4.386;2022-08-27T10:15:44;24.00;60.40
39675;DHT22;27790;50.840;4.386;2022-08-27T10:18:18;23.90;60.60
39675;DHT22;27790;50.840;4.386;2022-08-27T10:23:49;24.00;59.90
39675;DHT22;27790;50.840;4.386;2022-08-27T10:26:26;23.90;60.40
39675;DHT22;27790;50.840;4.386;2022-08-27T10:28:56;23.80;60.60
39675;DHT22;27790;50.840;4.386;2022-08-27T10:40:13;24.10;58.70
39675;DHT22;27790;50.840;4.386;2022-08-27T10:42:25;24.20;57.80
39675;DHT22;27790;50.840;4.386;2022-08-27T10:45:07;24.20;58.70
39675;DHT22;27790;50.840;4.386;2022-08-27T10:50:48;24.10;58.90
39675;DHT22;27790;50.840;4.386;2022-08-27T10:53:38;24.10;59.30
39675;DHT22;27790;50.840;4.386;2022-08-27T10:56:19;24.20;60.70
39675;DHT22;27790;50.840;4.386;2022-08-27T10:58:57;24.20;58.90
39675;DHT22;27790;50.840;4.386;2022-08-27T11:01:35;24.20;58.80
39675;DHT22;27790;50.840;4.386;2022-08-27T11:04:31;24.30;59.50
39675;DHT22;27790;50.840;4.386;2022-08-27T11:07:06;24.40;59.10
39675;DHT22;27790;50.840;4.386;2022-08-27T11:09:48;24.20;58.90
39675;DHT22;27790;50.840;4.386;2022-08-27T11:12:20;24.10;59.10
39675;DHT22;27790;50.840;4.386;2022-08-27T11:15:07;24.00;59.50
39675;DHT22;27790;50.840;4.386;2022-08-27T11:17:44;24.10;60.30
39675;DHT22;27790;50.840;4.386;2022-08-27T11:20:30;24.10;61.40
39675;DHT22;27790;50.840;4.386;2022-08-27T11:28:03;24.20;61.00
39675;DHT22;27790;50.840;4.386;2022-08-27T11:33:17;24.00;61.40
39675;DHT22;27790;50.840;4.386;2022-08-27T11:43:32;23.80;61.70
39675;DHT22;27790;50.840;4.386;2022-08-27T11:46:02;23.70;61.70
39675;DHT22;27790;50.840;4.386;2022-08-27T11:48:42;23.70;61.90
39675;DHT22;27790;50.840;4.386;2022-08-27T11:51:13;23.90;61.90
39675;DHT22;27790;50.840;4.386;2022-08-27T11:53:58;24.10;62.60
39675;DHT22;27790;50.840;4.386;2022-08-27T12:01:49;24.30;61.70
39675;DHT22;27790;50.840;4.386;2022-08-27T12:12:23;24.60;61.00
39675;DHT22;27790;50.840;4.386;2022-08-27T12:15:10;24.50;61.90
39675;DHT22;27790;50.840;4.386;2022-08-27T12:28:50;23.90;63.70
39675;DHT22;27790;50.840;4.386;2022-08-27T12:31:19;23.60;64.70
39675;DHT22;27790;50.840;4.386;2022-08-27T12:33:48;23.40;64.90
39675;DHT22;27790;50.840;4.386;2022-08-27T12:36:25;23.60;64.80
39675;DHT22;27790;50.840;4.386;2022-08-27T12:38:54;23.90;64.40
39675;DHT22;27790;50.840;4.386;2022-08-27T12:41:33;24.00;63.60
39675;DHT22;27790;50.840;4.386;2022-08-27T12:44:05;24.10;63.10
39675;DHT22;27790;50.840;4.386;2022-08-27T12:46:31;24.30;62.60
39675;DHT22;27790;50.840;4.386;2022-08-27T12:48:59;24.50;62.40
39675;DHT22;27790;50.840;4.386;2022-08-27T12:51:35;24.70;63.10
39675;DHT22;27790;50.840;4.386;2022-08-27T13:04:41;24.90;61.60
39675;DHT22;27790;50.840;4.386;2022-08-27T13:07:08;24.90;61.80
39675;DHT22;27790;50.840;4.386;2022-08-27T13:09:36;25.00;61.90
39675;DHT22;27790;50.840;4.386;2022-08-27T13:12:06;25.10;62.10
39675;DHT22;27790;50.840;4.386;2022-08-27T13:14:39;25.10;60.90
39675;DHT22;27790;50.840;4.386;2022-08-27T13:17:14;25.00;60.80
39675;DHT22;27790;50.840;4.386;2022-08-27T13:19:55;25.00;61.10
39675;DHT22;27790;50.840;4.386;2022-08-27T13:22:36;24.80;61.50
39675;DHT22;27790;50.840;4.386;2022-08-27T13:25:04;24.70;61.90
39675;DHT22;27790;50.840;4.386;2022-08-27T13:27:35;24.60;62.40
39675;DHT22;27790;50.840;4.386;2022-08-27T13:30:07;24.40;62.60
39675;DHT22;27790;50.840;4.386;2022-08-27T13:32:33;24.30;62.60
39675;DHT22;27790;50.840;4.386;2022-08-27T13:35:00;24.20;62.80
39675;DHT22;27790;50.840;4.386;2022-08-27T13:37:27;24.20;63.10
39675;DHT22;27790;50.840;4.386;2022-08-27T13:39:57;24.20;63.00
39675;DHT22;27790;50.840;4.386;2022-08-27T13:42:24;24.10;62.60
39675;DHT22;27790;50.840;4.386;2022-08-27T13:44:51;24.00;63.10
39675;DHT22;27790;50.840;4.386;2022-08-27T13:47:24;23.70;63.60
39675;DHT22;27790;50.840;4.386;2022-08-27T13:49:59;23.70;64.30
39675;DHT22;27790;50.840;4.386;2022-08-27T13:52:34;23.70;64.40
39675;DHT22;27790;50.840;4.386;2022-08-27T13:55:09;23.70;64.50
39675;DHT22;27790;50.840;4.386;2022-08-27T13:57:47;23.80;64.20
39675;DHT22;27790;50.840;4.386;2022-08-27T14:00:17;23.80;64.60
39675;DHT22;27790;50.840;4.386;2022-08-27T14:02:44;23.90;63.90
39675;DHT22;27790;50.840;4.386;2022-08-27T14:05:31;23.90;64.40
39675;DHT22;27790;50.840;4.386;2022-08-27T14:08:13;23.90;64.30
39675;DHT22;27790;50.840;4.386;2022-08-27T14:10:44;23.90;64.20
39675;DHT22;27790;50.840;4.386;2022-08-27T14:15:43;24.00;64.50
39675;DHT22;27790;50.840;4.386;2022-08-27T14:20:58;24.10;64.00
39675;DHT22;27790;50.840;4.386;2022-08-27T14:23:25;24.10;64.10
39675;DHT22;27790;50.840;4.386;2022-08-27T14:25:54;24.10;64.00
39675;DHT22;27790;50.840;4.386;2022-08-27T14:28:21;24.00;63.40
39675;DHT22;27790;50.840;4.386;2022-08-27T14:30:47;24.00;63.20
39675;DHT22;27790;50.840;4.386;2022-08-27T14:33:13;23.90;63.10
39675;DHT22;27790;50.840;4.386;2022-08-27T14:35:39;23.90;63.30
39675;DHT22;27790;50.840;4.386;2022-08-27T14:40:40;23.90;63.40
39675;DHT22;27790;50.840;4.386;2022-08-27T14:43:06;24.00;63.50
39675;DHT22;27790;50.840;4.386;2022-08-27T14:45:32;24.20;62.70
39675;DHT22;27790;50.840;4.386;2022-08-27T14:47:58;24.00;62.60
39675;DHT22;27790;50.840;4.386;2022-08-27T14:50:24;24.00;63.20
39675;DHT22;27790;50.840;4.386;2022-08-27T14:52:50;24.00;63.10
39675;DHT22;27790;50.840;4.386;2022-08-27T14:55:16;24.10;63.10
39675;DHT22;27790;50.840;4.386;2022-08-27T14:57:41;24.20;62.90
39675;DHT22;27790;50.840;4.386;2022-08-27T15:00:07;24.30;62.50
39675;DHT22;27790;50.840;4.386;2022-08-27T15:02:34;24.40;62.20
39675;DHT22;27790;50.840;4.386;2022-08-27T15:05:04;24.40;62.40
39675;DHT22;27790;50.840;4.386;2022-08-27T15:07:29;24.40;62.60
39675;DHT22;27790;50.840;4.386;2022-08-27T15:09:55;24.40;62.80
39675;DHT22;27790;50.840;4.386;2022-08-27T15:12:20;24.40;62.50
39675;DHT22;27790;50.840;4.386;2022-08-27T15:14:46;24.40;62.60
39675;DHT22;27790;50.840;4.386;2022-08-27T15:17:12;24.40;63.30
39675;DHT22;27790;50.840;4.386;2022-08-27T15:19:37;24.40;62.70
39675;DHT22;27790;50.840;4.386;2022-08-27T15:22:15;24.30;62.40
39675;DHT22;27790;50.840;4.386;2022-08-27T15:24:44;24.30;62.30
39675;DHT22;27790;50.840;4.386;2022-08-27T15:27:10;24.20;62.60
39675;DHT22;27790;50.840;4.386;2022-08-27T15:29:35;24.00;63.20
39675;DHT22;27790;50.840;4.386;2022-08-27T15:32:02;23.90;63.10
39675;DHT22;27790;50.840;4.386;2022-08-27T15:34:28;24.00;63.40
39675;DHT22;27790;50.840;4.386;2022-08-27T15:36:53;24.00;63.40
39675;DHT22;27790;50.840;4.386;2022-08-27T15:39:20;24.10;62.80
39675;DHT22;27790;50.840;4.386;2022-08-27T15:41:46;24.20;61.80
39675;DHT22;27790;50.840;4.386;2022-08-27T15:44:12;24.10;61.30
39675;DHT22;27790;50.840;4.386;2022-08-27T15:46:37;24.00;60.90
39675;DHT22;27790;50.840;4.386;2022-08-27T15:49:04;24.00;61.40
39675;DHT22;27790;50.840;4.386;2022-08-27T15:51:32;23.90;61.10
39675;DHT22;27790;50.840;4.386;2022-08-27T15:53:58;23.90;61.20
39675;DHT22;27790;50.840;4.386;2022-08-27T15:56:25;23.90;61.00
39675;DHT22;27790;50.840;4.386;2022-08-27T15:58:51;24.00;61.40
39675;DHT22;27790;50.840;4.386;2022-08-27T16:01:29;24.00;61.30
39675;DHT22;27790;50.840;4.386;2022-08-27T16:03:56;24.00;61.40
39675;DHT22;27790;50.840;4.386;2022-08-27T16:06:24;24.10;61.60
39675;DHT22;27790;50.840;4.386;2022-08-27T16:08:50;24.10;61.70
39675;DHT22;27790;50.840;4.386;2022-08-27T16:11:16;24.20;62.00
39675;DHT22;27790;50.840;4.386;2022-08-27T16:13:42;24.10;62.10
39675;DHT22;27790;50.840;4.386;2022-08-27T16:16:08;24.00;62.30
39675;DHT22;27790;50.840;4.386;2022-08-27T16:18:35;24.10;62.70
39675;DHT22;27790;50.840;4.386;2022-08-27T16:21:02;24.10;63.20
39675;DHT22;27790;50.840;4.386;2022-08-27T16:23:29;24.10;62.70
39675;DHT22;27790;50.840;4.386;2022-08-27T16:25:55;24.00;63.20
39675;DHT22;27790;50.840;4.386;2022-08-27T16:28:21;24.00;63.20
39675;DHT22;27790;50.840;4.386;2022-08-27T16:30:48;24.00;63.40
39675;DHT22;27790;50.840;4.386;2022-08-27T16:33:14;24.00;63.90
39675;DHT22;27790;50.840;4.386;2022-08-27T16:35:40;24.00;63.80
39675;DHT22;27790;50.840;4.386;2022-08-27T16:38:07;23.90;64.20
39675;DHT22;27790;50.840;4.386;2022-08-27T16:40:36;23.80;64.30
39675;DHT22;27790;50.840;4.386;2022-08-27T16:43:02;23.70;64.30
39675;DHT22;27790;50.840;4.386;2022-08-27T16:45:28;23.70;64.60
39675;DHT22;27790;50.840;4.386;2022-08-27T16:47:54;23.60;65.60
39675;DHT22;27790;50.840;4.386;2022-08-27T16:50:30;23.60;65.20
39675;DHT22;27790;50.840;4.386;2022-08-27T16:53:04;23.70;64.70
39675;DHT22;27790;50.840;4.386;2022-08-27T16:55:31;23.70;64.80
39675;DHT22;27790;50.840;4.386;2022-08-27T16:57:57;23.60;64.70
39675;DHT22;27790;50.840;4.386;2022-08-27T17:00:23;23.60;65.10
39675;DHT22;27790;50.840;4.386;2022-08-27T17:02:49;23.60;65.30
39675;DHT22;27790;50.840;4.386;2022-08-27T17:05:15;23.50;65.40
39675;DHT22;27790;50.840;4.386;2022-08-27T17:07:40;23.30;66.00
39675;DHT22;27790;50.840;4.386;2022-08-27T17:10:06;23.30;66.40
39675;DHT22;27790;50.840;4.386;2022-08-27T17:12:32;23.30;66.40
39675;DHT22;27790;50.840;4.386;2022-08-27T17:14:58;23.20;65.90
39675;DHT22;27790;50.840;4.386;2022-08-27T17:17:26;23.20;66.20
39675;DHT22;27790;50.840;4.386;2022-08-27T17:19:52;23.00;66.30
39675;DHT22;27790;50.840;4.386;2022-08-27T17:22:18;23.00;66.70